Time;durP1;ratioP1;P1;durP2;ratioP2;P2;SDS_P1;SDS_P2;PMS_P1;PMS_P2;Temp;Humidity;BMP_temperature;BMP_pressure;BME280_temperature;BME280_humidity;BME280_pressure;Samples;Min_cycle;Max_cycle;Signal;HPM_P1;HPM_P2
2022/09/02 00:01:15;;;;;;;17.20;11.55;;;;;;;20.12;100.00;100456.72;4995449;28;20041;-90
2022/09/02 00:03:42;;;;;;;16.60;12.40;;;;;;;19.95;100.00;100444.94;5009147;28;20067;-89
2022/09/02 00:06:08;;;;;;;17.35;10.55;;;;;;;20.29;100.00;100445.38;5020932;28;20022;-91
2022/09/02 00:08:34;;;;;;;20.13;11.45;;;;;;;20.11;100.00;100438.97;5022353;28;20034;-90
2022/09/02 00:11:02;;;;;;;20.38;11.82;;;;;;;20.13;100.00;100436.88;4978147;28;20085;-92
2022/09/02 00:13:29;;;;;;;13.95;10.45;;;;;;;20.06;100.00;100437.97;5010631;28;20030;-90
2022/09/02 00:15:55;;;;;;;15.25;10.60;;;;;;;20.28;100.00;100430.28;4997658;28;20397;-92
2022/09/02 00:18:23;;;;;;;17.27;10.48;;;;;;;20.22;100.00;100418.53;4975916;28;20042;-92
2022/09/02 00:20:49;;;;;;;21.38;10.35;;;;;;;20.19;100.00;100418.97;4994490;28;20038;-91
2022/09/02 00:23:18;;;;;;;17.70;9.50;;;;;;;20.24;100.00;100412.91;4995005;28;20022;-92
2022/09/02 00:25:45;;;;;;;15.27;9.40;;;;;;;20.32;100.00;100418.00;4976205;28;20528;-92
2022/09/02 00:28:12;;;;;;;16.77;9.70;;;;;;;20.34;100.00;100415.94;4997724;28;20127;-93
2022/09/02 00:30:40;;;;;;;22.50;9.60;;;;;;;20.23;100.00;100416.66;4995594;28;20053;-91
2022/09/02 00:33:09;;;;;;;15.45;9.23;;;;;;;20.17;100.00;100425.63;4983106;28;20043;-93
2022/09/02 00:35:35;;;;;;;20.42;10.20;;;;;;;20.01;100.00;100417.16;4999822;28;20038;-90
2022/09/02 00:38:02;;;;;;;18.38;9.60;;;;;;;20.05;100.00;100418.31;4995824;28;20041;-88
2022/09/02 00:40:29;;;;;;;14.85;9.30;;;;;;;19.88;100.00;100425.38;5010622;28;20026;-90
2022/09/02 00:42:58;;;;;;;18.55;9.65;;;;;;;19.89;100.00;100424.31;5007070;28;20034;-90
2022/09/02 00:45:24;;;;;;;18.35;9.80;;;;;;;19.95;100.00;100431.47;5018717;28;20038;-92
2022/09/02 00:47:52;;;;;;;13.90;8.73;;;;;;;20.05;100.00;100422.91;5010254;28;20071;-91
2022/09/02 00:50:23;;;;;;;14.38;9.07;;;;;;;20.04;100.00;100418.56;4994162;28;20401;-91
2022/09/02 00:52:57;;;;;;;19.73;9.07;;;;;;;20.03;100.00;100431.19;5004377;28;20038;-91
2022/09/02 00:55:26;;;;;;;17.98;9.38;;;;;;;19.96;100.00;100414.31;5012320;28;20066;-91
2022/09/02 00:57:56;;;;;;;20.23;9.20;;;;;;;19.98;100.00;100419.47;5010815;28;20445;-92
2022/09/02 01:00:28;;;;;;;16.08;8.65;;;;;;;19.92;100.00;100423.88;4989301;28;20038;-90
2022/09/02 01:02:58;;;;;;;20.55;9.45;;;;;;;19.79;100.00;100418.66;5003758;28;20397;-89
2022/09/02 01:05:30;;;;;;;16.17;8.82;;;;;;;19.82;100.00;100418.19;5004606;28;20034;-92
2022/09/02 01:07:57;;;;;;;17.37;9.17;;;;;;;19.89;100.00;100426.19;4980035;28;20041;-92
2022/09/02 01:10:33;;;;;;;18.05;8.27;;;;;;;19.73;100.00;100419.53;4981692;28;20555;-92
2022/09/02 01:13:06;;;;;;;12.45;8.07;;;;;;;19.85;100.00;100419.63;4980323;28;20076;-92
2022/09/02 01:15:37;;;;;;;15.60;8.40;;;;;;;19.98;100.00;100417.59;4982227;28;20089;-92
2022/09/02 01:18:05;;;;;;;16.67;8.50;;;;;;;19.94;100.00;100429.03;4981756;28;20445;-90
2022/09/02 01:20:31;;;;;;;17.70;8.43;;;;;;;19.67;100.00;100419.63;4980143;28;20485;-92
2022/09/02 01:22:57;;;;;;;15.68;8.55;;;;;;;19.65;100.00;100417.16;4997183;28;20458;-90
2022/09/02 01:25:27;;;;;;;15.80;8.23;;;;;;;19.64;100.00;100404.75;4969819;28;20102;-90
2022/09/02 01:28:03;;;;;;;;;;;;;;;19.59;100.00;100401.91;4984905;28;20073;-91
2022/09/02 01:30:29;;;;;;;24.92;8.55;;;;;;;19.47;100.00;100399.16;4979537;28;19921;-91
2022/09/02 01:32:55;;;;;;;15.50;7.45;;;;;;;19.63;100.00;100411.19;4995015;28;20041;-91
2022/09/02 01:35:21;;;;;;;16.98;7.25;;;;;;;19.52;100.00;100401.97;4976806;28;20046;-90
2022/09/02 01:37:47;;;;;;;19.48;7.10;;;;;;;19.58;100.00;100405.66;4995496;28;20038;-91
2022/09/02 01:40:16;;;;;;;21.88;7.88;;;;;;;19.54;100.00;100404.47;4962523;28;20171;-91
2022/09/02 01:42:44;;;;;;;19.75;7.20;;;;;;;19.59;100.00;100407.28;4978637;28;20037;-91
2022/09/02 01:45:10;;;;;;;17.27;6.85;;;;;;;19.46;100.00;100404.72;4962111;28;20062;-91
2022/09/02 01:47:36;;;;;;;21.00;8.05;;;;;;;19.60;100.00;100408.94;4977973;28;20078;-90
2022/09/02 01:50:07;;;;;;;16.20;6.90;;;;;;;19.48;100.00;100406.19;4995769;28;20553;-90
2022/09/02 01:52:33;;;;;;;11.15;6.78;;;;;;;19.40;100.00;100414.53;4978433;28;20431;-90
2022/09/02 01:54:59;;;;;;;17.77;6.13;;;;;;;19.50;100.00;100405.94;4978293;28;20026;-91
2022/09/02 01:57:25;;;;;;;15.10;6.18;;;;;;;19.34;100.00;100409.19;4977990;28;20038;-91
2022/09/02 01:59:52;;;;;;;16.15;7.32;;;;;;;19.26;100.00;100409.44;4993860;28;20128;-92
2022/09/02 02:02:19;;;;;;;14.45;6.55;;;;;;;19.42;100.00;100407.03;4961524;28;20185;-90
2022/09/02 02:04:47;;;;;;;11.45;7.40;;;;;;;19.23;100.00;100407.22;4978390;28;20045;-91
2022/09/02 02:07:14;;;;;;;17.50;7.70;;;;;;;19.29;100.00;100403.66;4962141;28;20034;-90
2022/09/02 02:09:43;;;;;;;17.92;7.22;;;;;;;19.47;100.00;100401.00;4978356;28;20094;-92
2022/09/02 02:12:12;;;;;;;23.55;7.50;;;;;;;19.21;100.00;100399.38;4995207;28;20038;-90
2022/09/02 02:14:38;;;;;;;9.80;6.75;;;;;;;19.17;100.00;100400.88;4995261;28;20547;-92
2022/09/02 02:17:06;;;;;;;20.58;7.53;;;;;;;19.15;100.00;100402.13;4978010;28;20038;-91
2022/09/02 02:19:33;;;;;;;16.58;7.38;;;;;;;19.22;100.00;100400.22;4978936;28;20039;-91
2022/09/02 02:21:59;;;;;;;17.02;8.13;;;;;;;19.24;100.00;100406.16;4978802;28;20030;-92
2022/09/02 02:24:25;;;;;;;16.30;7.80;;;;;;;19.05;100.00;100395.41;4978672;28;20038;-90
2022/09/02 02:26:51;;;;;;;17.35;7.53;;;;;;;19.04;100.00;100395.59;4978892;28;20033;-91
2022/09/02 02:29:19;;;;;;;18.08;7.57;;;;;;;19.03;100.00;100397.47;4977938;28;20046;-91
2022/09/02 02:31:46;;;;;;;17.77;8.55;;;;;;;19.28;100.00;100412.75;4961827;28;20058;-92
2022/09/02 02:34:12;;;;;;;16.10;7.50;;;;;;;19.23;100.00;100408.03;4995315;28;20401;-91
2022/09/02 02:36:39;;;;;;;16.80;8.13;;;;;;;19.18;100.00;100399.00;4977363;28;20038;-92
2022/09/02 02:39:08;;;;;;;16.67;8.15;;;;;;;19.25;100.00;100399.78;4994817;28;20121;-91
2022/09/02 02:41:36;;;;;;;17.30;8.43;;;;;;;19.35;100.00;100400.09;4980894;28;20081;-90
2022/09/02 02:44:20;;;;;;;23.95;8.40;;;;;;;19.30;100.00;100407.97;4984703;28;20034;-89
2022/09/02 02:46:46;;;;;;;18.30;9.15;;;;;;;19.18;100.00;100409.75;5015466;28;20125;-93
2022/09/02 02:49:12;;;;;;;16.92;8.68;;;;;;;19.33;100.00;100410.22;4989691;28;20042;-90
2022/09/02 02:51:38;;;;;;;21.25;8.95;;;;;;;19.31;100.00;100405.06;4980373;28;20113;-92
2022/09/02 02:54:05;;;;;;;16.83;8.05;;;;;;;19.35;100.00;100400.09;4980759;28;20030;-89
2022/09/02 02:56:31;;;;;;;15.75;8.15;;;;;;;19.30;100.00;100413.34;4980171;28;20038;-91
2022/09/02 02:59:01;;;;;;;16.50;8.18;;;;;;;19.37;100.00;100414.09;4964402;28;20109;-91
2022/09/02 03:01:29;;;;;;;18.42;8.80;;;;;;;19.29;100.00;100406.34;4964669;28;20076;-91
2022/09/02 03:03:55;;;;;;;16.55;7.88;;;;;;;19.18;100.00;100399.00;4982181;28;20408;-92
2022/09/02 03:06:22;;;;;;;12.40;7.90;;;;;;;19.19;100.00;100406.03;4982516;28;20041;-94
2022/09/02 03:08:48;;;;;;;15.80;8.43;;;;;;;19.20;100.00;100397.72;4981636;28;20038;-90
2022/09/02 03:11:15;;;;;;;16.42;8.18;;;;;;;19.28;100.00;100393.94;4981373;28;20389;-92
2022/09/02 03:13:41;;;;;;;18.92;7.90;;;;;;;19.14;100.00;100392.41;4981173;28;20114;-90
2022/09/02 03:16:07;;;;;;;19.58;8.48;;;;;;;19.44;100.00;100388.03;4980352;28;20401;-89
2022/09/02 03:18:33;;;;;;;16.90;8.00;;;;;;;19.37;100.00;100385.38;4997176;28;20030;-87
2022/09/02 03:21:00;;;;;;;13.07;8.63;;;;;;;19.23;100.00;100383.84;4979826;28;20037;-89
2022/09/02 03:23:26;;;;;;;14.48;7.93;;;;;;;19.37;100.00;100380.00;4997408;28;20038;-86
2022/09/02 03:25:52;;;;;;;21.15;8.77;;;;;;;19.26;100.00;100385.25;4979489;28;20038;-88
2022/09/02 03:28:36;;;;;;;21.98;8.45;;;;;;;19.37;100.00;100387.22;4992057;28;20026;-88
2022/09/02 03:31:21;;;;;;;16.35;7.88;;;;;;;19.42;100.00;100379.38;5021048;28;20041;-88
2022/09/02 03:33:47;;;;;;;17.30;7.55;;;;;;;19.48;100.00;100384.69;5003997;28;20061;-89
2022/09/02 03:36:38;;;;;;;15.07;8.50;;;;;;;19.33;100.00;100396.78;4996623;28;20045;-89
2022/09/02 03:39:07;;;;;;;19.30;8.40;;;;;;;19.30;100.00;100411.50;4980679;28;20125;-87
2022/09/02 03:41:36;;;;;;;22.58;8.75;;;;;;;19.03;100.00;100421.66;4998572;28;20026;-89
2022/09/02 03:44:04;;;;;;;18.05;9.40;;;;;;;18.91;100.00;100425.25;5000776;28;20081;-85
2022/09/02 03:46:50;;;;;;;18.42;9.70;;;;;;;18.82;100.00;100429.28;4983103;28;20053;-84
2022/09/02 03:49:16;;;;;;;16.75;9.63;;;;;;;18.82;100.00;100427.41;4979575;28;20400;-86
2022/09/02 03:51:42;;;;;;;24.30;9.95;;;;;;;18.86;100.00;100419.72;4996540;28;20033;-87
2022/09/02 03:54:09;;;;;;;19.90;10.50;;;;;;;18.88;100.00;100418.47;4980630;28;20034;-86
2022/09/02 03:56:35;;;;;;;14.70;10.10;;;;;;;18.90;100.00;100410.19;4980074;28;20041;-87
2022/09/02 03:59:01;;;;;;;18.55;11.13;;;;;;;18.96;100.00;100401.25;4979037;28;20046;-90
2022/09/02 04:01:27;;;;;;;21.17;10.50;;;;;;;19.01;100.00;100396.88;4979280;28;20117;-91
2022/09/02 04:03:53;;;;;;;23.10;11.63;;;;;;;19.03;100.00;100386.72;4980627;28;20486;-87
2022/09/02 04:06:21;;;;;;;23.25;10.68;;;;;;;19.08;100.00;100380.69;5007712;23;20030;-89
2022/09/02 04:08:48;;;;;;;18.00;10.75;;;;;;;19.21;100.00;100379.75;4999327;28;20042;-90
2022/09/02 04:11:17;;;;;;;22.92;11.60;;;;;;;19.23;100.00;100380.34;4964390;28;20093;-90
2022/09/02 04:13:47;;;;;;;18.00;11.38;;;;;;;19.19;100.00;100373.78;4978528;28;20105;-88
2022/09/02 04:16:26;;;;;;;23.10;12.05;;;;;;;19.17;100.00;100387.44;4979207;28;20039;-88
2022/09/02 04:18:52;;;;;;;19.80;11.95;;;;;;;18.94;100.00;100404.16;4978915;28;20544;-90
2022/09/02 04:21:24;;;;;;;20.15;11.88;;;;;;;18.82;100.00;100405.09;4978194;28;20069;-90
2022/09/02 04:23:51;;;;;;;26.33;12.05;;;;;;;18.93;100.00;100412.44;4994676;28;20038;-89
2022/09/02 04:26:19;;;;;;;20.38;11.98;;;;;;;18.80;100.00;100413.38;4962039;28;20030;-89
2022/09/02 04:28:49;;;;;;;23.40;12.10;;;;;;;18.75;100.00;100417.75;4979546;28;20042;-87
2022/09/02 04:31:19;;;;;;;20.23;12.20;;;;;;;18.61;100.00;100414.34;4978070;28;20497;-88
2022/09/02 04:33:46;;;;;;;24.70;13.77;;;;;;;18.49;100.00;100424.88;4978375;28;20065;-87
2022/09/02 04:36:17;;;;;;;24.67;14.30;;;;;;;18.47;100.00;100418.94;4978341;28;20046;-86
2022/09/02 04:38:43;;;;;;;30.00;14.10;;;;;;;18.48;100.00;100417.06;4978721;28;20098;-88
2022/09/02 04:41:13;;;;;;;27.20;16.25;;;;;;;18.40;100.00;100417.31;4978186;28;20477;-89
2022/09/02 04:43:45;;;;;;;23.55;15.30;;;;;;;18.54;100.00;100418.91;4981473;28;20038;-87
2022/09/02 04:46:15;;;;;;;28.05;16.52;;;;;;;18.46;100.00;100430.69;4968896;28;20046;-87
2022/09/02 04:48:42;;;;;;;27.33;15.90;;;;;;;18.44;100.00;100434.63;4976049;28;20038;-89
2022/09/02 04:51:12;;;;;;;27.25;16.95;;;;;;;18.40;100.00;100441.47;4977390;28;20054;-89
2022/09/02 04:53:39;;;;;;;28.33;17.35;;;;;;;18.36;100.00;100432.22;4977285;28;20040;-86
2022/09/02 04:56:07;;;;;;;31.45;18.90;;;;;;;18.27;100.00;100428.94;4977257;28;20042;-89
2022/09/02 04:58:35;;;;;;;32.63;17.95;;;;;;;18.35;100.00;100425.19;4977411;28;20041;-89
2022/09/02 05:01:09;;;;;;;33.53;17.75;;;;;;;18.35;100.00;100419.84;4961222;28;20405;-89
2022/09/02 05:03:36;;;;;;;31.35;18.27;;;;;;;18.49;100.00;100411.47;4977771;28;20031;-91
2022/09/02 05:06:06;;;;;;;23.95;15.25;;;;;;;18.81;100.00;100419.56;4995062;28;20049;-88
2022/09/02 05:08:35;;;;;;;25.98;16.17;;;;;;;18.84;100.00;100419.13;4961686;28;20441;-88
2022/09/02 05:11:12;;;;;;;28.17;17.40;;;;;;;18.85;100.00;100421.59;4977385;28;20038;-89
2022/09/02 05:13:39;;;;;;;33.85;20.17;;;;;;;18.89;100.00;100422.78;4977986;28;20512;-87
2022/09/02 05:16:05;;;;;;;34.90;20.33;;;;;;;18.99;100.00;100417.75;4977765;28;20117;-88
2022/09/02 05:18:31;;;;;;;28.73;18.98;;;;;;;19.13;100.00;100431.91;4979201;28;20034;-89
2022/09/02 05:20:57;;;;;;;34.38;19.48;;;;;;;19.18;100.00;100431.25;4963890;28;20065;-89
2022/09/02 05:23:23;;;;;;;31.65;20.83;;;;;;;19.10;100.00;100435.03;4995517;28;20105;-88
2022/09/02 05:25:49;;;;;;;32.15;19.48;;;;;;;19.23;100.00;100439.44;5001065;28;20078;-89
2022/09/02 05:28:16;;;;;;;43.83;21.08;;;;;;;19.06;100.00;100445.38;4999877;28;20057;-88
2022/09/02 05:30:42;;;;;;;33.05;21.77;;;;;;;18.98;100.00;100442.97;4983711;28;20038;-89
2022/09/02 05:33:09;;;;;;;39.55;22.63;;;;;;;18.87;100.00;100451.72;4978741;28;20022;-88
2022/09/02 05:35:42;;;;;;;32.45;21.73;;;;;;;18.98;100.00;100452.91;4977670;28;20129;-89
2022/09/02 05:38:09;;;;;;;;;;;;;;;18.83;100.00;100455.88;4978083;28;20030;-89
2022/09/02 05:40:38;;;;;;;34.10;21.08;;;;;;;18.74;100.00;100464.44;4977892;28;19913;-89
2022/09/02 05:43:06;;;;;;;35.08;20.73;;;;;;;18.72;100.00;100461.97;4977476;28;20053;-88
2022/09/02 05:45:33;;;;;;;33.47;19.80;;;;;;;18.78;100.00;100462.97;4977218;28;20381;-90
2022/09/02 05:49:04;;;;;;;35.75;18.95;;;;;;;19.02;100.00;100465.66;4976910;28;20124;-90
2022/09/02 05:50:45;;;;;;;29.00;17.73;;;;;;;19.63;100.00;100472.19;4977081;28;20050;-90
2022/09/02 05:53:11;;;;;;;25.88;15.65;;;;;;;20.10;100.00;100466.09;4977763;28;20484;-90
2022/09/02 05:55:38;;;;;;;25.52;16.08;;;;;;;20.43;100.00;100468.38;4977024;28;20030;-88
2022/09/02 05:58:10;;;;;;;25.50;14.60;;;;;;;20.32;100.00;100480.75;4983291;28;20034;-89
2022/09/02 06:00:38;;;;;;;27.30;13.77;;;;;;;20.67;100.00;100470.13;4981350;28;20039;-90
2022/09/02 06:03:04;;;;;;;20.27;11.45;;;;;;;20.93;100.00;100480.50;5003566;28;20049;-89
2022/09/02 06:05:34;;;;;;;18.80;11.65;;;;;;;21.11;100.00;100482.34;4964831;28;20058;-89
2022/09/02 06:08:20;;;;;;;21.52;11.13;;;;;;;21.50;100.00;100486.25;4997273;28;20034;-89
2022/09/02 06:10:50;;;;;;;19.92;10.45;;;;;;;21.79;100.00;100482.59;5001302;28;20157;-88
2022/09/02 06:13:21;;;;;;;20.70;11.07;;;;;;;21.74;100.00;100487.91;4965243;28;20042;-90
2022/09/02 06:15:49;;;;;;;17.17;10.38;;;;;;;21.63;100.00;100484.16;4982061;28;20034;-90
2022/09/02 06:18:16;;;;;;;18.52;9.73;;;;;;;22.01;100.00;100483.66;4994235;28;20038;-90
2022/09/02 06:20:46;;;;;;;13.15;8.68;;;;;;;22.61;100.00;100485.94;5001425;28;20034;-90
2022/09/02 06:23:14;;;;;;;13.40;8.50;;;;;;;22.88;100.00;100486.19;5000540;28;20086;-91
2022/09/02 06:25:48;;;;;;;13.00;9.00;;;;;;;22.90;100.00;100487.56;4995668;28;20049;-93
2022/09/02 06:28:14;;;;;;;18.42;9.10;;;;;;;23.93;100.00;100497.09;5016540;23;20069;-89
2022/09/02 06:30:44;;;;;;;18.98;9.00;;;;;;;23.49;100.00;100496.16;5008934;28;20065;-92
2022/09/02 06:33:13;;;;;;;14.50;8.65;;;;;;;23.15;100.00;100496.13;5000629;28;20045;-92
2022/09/02 06:35:44;;;;;;;12.82;8.25;;;;;;;22.76;100.00;100488.97;5007405;28;20034;-91
2022/09/02 06:38:14;;;;;;;13.15;8.40;;;;;;;22.99;100.00;100488.84;4998134;28;20041;-92
2022/09/02 06:40:53;;;;;;;11.48;7.38;;;;;;;23.29;100.00;100485.81;5000552;28;20033;-89
2022/09/02 06:43:25;;;;;;;14.93;7.32;;;;;;;23.54;100.00;100499.75;5018333;28;20493;-91
2022/09/02 06:46:18;;;;;;;21.15;6.82;;;;;;;23.83;100.00;100495.03;5005135;28;20052;-90
2022/09/02 06:48:48;;;;;;;14.82;6.35;;;;;;;23.64;100.00;100499.09;5020608;28;20030;-87
2022/09/02 06:51:23;;;;;;;8.77;5.70;;;;;;;23.30;100.00;100492.06;5005154;28;20100;-89
2022/09/02 06:53:50;;;;;;;12.43;5.93;;;;;;;23.23;100.00;100491.38;5004494;28;20038;-89
2022/09/02 06:56:16;;;;;;;8.32;5.60;;;;;;;23.31;100.00;100489.09;4995520;28;20038;-87
2022/09/02 06:58:42;;;;;;;11.80;5.53;;;;;;;22.69;100.00;100480.19;4995482;28;20034;-87
2022/09/02 07:01:10;;;;;;;18.35;6.10;;;;;;;22.86;100.00;100480.22;4984227;28;20092;-88
2022/09/02 07:06:20;;;;;;;12.35;5.03;;;;;;;23.69;100.00;100488.34;5001516;28;20528;-86
2022/09/02 07:08:48;;;;;;;7.97;5.03;;;;;;;23.54;100.00;100486.22;4987434;28;20058;-87
2022/09/02 07:11:21;;;;;;;11.10;5.60;;;;;;;23.80;100.00;100484.69;5003780;28;20117;-88
2022/09/02 07:13:50;;;;;;;14.10;4.90;;;;;;;24.19;100.00;100497.16;4994634;28;20038;-86
2022/09/02 07:16:17;;;;;;;11.65;5.28;;;;;;;24.66;100.00;100496.63;4989390;28;20036;-86
2022/09/02 07:18:43;;;;;;;11.07;5.25;;;;;;;24.47;99.52;100495.34;4995220;28;20065;-87
2022/09/02 07:21:11;;;;;;;8.98;4.68;;;;;;;24.81;97.47;100504.94;4990005;28;20041;-89
2022/09/02 07:23:39;;;;;;;11.40;5.03;;;;;;;24.49;99.92;100493.22;5004935;28;20446;-86
2022/09/02 07:26:16;;;;;;;11.07;5.15;;;;;;;23.99;100.00;100501.50;4984545;28;20030;-86
2022/09/02 07:28:45;;;;;;;15.38;6.45;;;;;;;24.28;100.00;100494.84;4969280;28;20046;-88
2022/09/02 07:31:15;;;;;;;14.00;5.40;;;;;;;24.68;99.68;100499.91;4984230;28;20488;-89
2022/09/02 07:33:43;;;;;;;9.73;5.82;;;;;;;24.18;100.00;100500.97;4986661;28;20026;-87
2022/09/02 07:36:11;;;;;;;14.90;5.90;;;;;;;24.32;100.00;100500.59;5013216;28;20037;-86
2022/09/02 07:38:37;;;;;;;10.40;6.40;;;;;;;24.80;99.59;100500.56;5002237;28;20048;-86
2022/09/02 07:41:04;;;;;;;8.93;4.95;;;;;;;25.16;95.81;100491.72;5019923;28;20440;-85
2022/09/02 07:43:33;;;;;;;9.65;6.25;;;;;;;24.40;100.00;100497.41;5006528;28;20481;-87
2022/09/02 07:46:04;;;;;;;8.40;5.60;;;;;;;24.52;100.00;100501.66;5018421;28;20046;-86
2022/09/02 08:26:01;;;;;;;10.13;3.78;;;;;;;26.09;83.56;100498.34;5093951;28;20389;-82
2022/09/02 08:28:27;;;;;;;5.55;3.40;;;;;;;26.43;81.62;100498.78;5076804;28;20033;-85
2022/09/02 08:30:57;;;;;;;8.50;3.28;;;;;;;26.10;84.17;100501.88;5071405;28;20414;-85
2022/09/02 08:33:22;;;;;;;15.68;4.30;;;;;;;26.59;81.55;100505.06;5068236;28;20132;-86
2022/09/02 08:35:48;;;;;;;13.25;3.50;;;;;;;27.11;79.71;100508.44;5075788;28;20039;-83
2022/09/02 08:38:16;;;;;;;10.48;3.30;;;;;;;26.93;77.74;100511.72;5074790;28;20155;-83
2022/09/02 08:40:43;;;;;;;7.20;3.28;;;;;;;26.35;81.32;100512.09;5113217;28;20465;-84
2022/09/02 08:43:28;;;;;;;8.82;3.05;;;;;;;26.94;78.05;100510.63;5106696;28;20028;-83
2022/09/02 08:45:57;;;;;;;6.10;3.58;;;;;;;26.63;79.37;100517.06;5115590;28;20021;-83
2022/09/02 08:48:31;;;;;;;9.77;3.45;;;;;;;25.84;83.01;100519.94;5078578;28;20124;-84
2022/09/02 08:51:02;;;;;;;7.47;3.35;;;;;;;25.73;83.74;100517.41;5066868;28;20032;-86
2022/09/02 08:53:33;;;;;;;7.90;3.17;;;;;;;25.77;84.72;100519.34;5067091;28;20368;-83
2022/09/02 08:56:02;;;;;;;6.20;3.63;;;;;;;25.66;84.60;100529.31;5064792;28;20039;-84
2022/09/02 08:58:38;;;;;;;6.30;3.00;;;;;;;25.96;84.43;100520.53;5076090;28;20401;-86
2022/09/02 09:01:03;;;;;;;4.47;2.97;;;;;;;26.50;83.02;100526.53;5070008;28;20027;-83
2022/09/02 09:03:40;;;;;;;6.85;3.15;;;;;;;26.98;81.06;100522.59;5069119;28;20041;-84
2022/09/02 09:06:16;;;;;;;5.45;3.22;;;;;;;27.29;75.21;100533.50;5067671;28;20033;-83
2022/09/02 09:09:26;;;;;;;6.28;3.00;;;;;;;28.47;72.87;100533.88;5068440;28;20430;-84
2022/09/02 09:12:11;;;;;;;7.90;3.28;;;;;;;28.90;70.10;100533.09;5069414;28;20116;-86
2022/09/02 09:14:39;;;;;;;6.28;3.30;;;;;;;28.55;70.96;100530.53;5076144;28;20071;-84
2022/09/02 09:17:31;;;;;;;7.60;2.67;;;;;;;28.15;73.38;100526.91;5063781;28;20037;-82
2022/09/02 09:20:02;;;;;;;5.10;2.83;;;;;;;27.90;65.25;100529.69;5075134;28;20527;-85
2022/09/02 09:22:36;;;;;;;4.80;2.22;;;;;;;27.66;64.82;100520.47;5078390;28;20047;-82
2022/09/02 09:25:07;;;;;;;5.82;2.95;;;;;;;27.33;65.66;100521.00;5071653;28;20043;-83
2022/09/02 09:27:33;;;;;;;5.45;2.58;;;;;;;26.76;69.18;100516.53;5059095;28;20130;-82
2022/09/02 09:30:00;;;;;;;5.80;3.00;;;;;;;26.83;69.05;100511.69;5065441;28;20076;-84
2022/09/02 09:32:32;;;;;;;6.65;3.00;;;;;;;27.04;68.39;100518.00;5066448;28;20037;-85
2022/09/02 09:35:06;;;;;;;6.75;3.28;;;;;;;26.05;72.53;100516.25;5063736;28;20025;-86
2022/09/02 09:37:37;;;;;;;5.88;2.53;;;;;;;26.35;70.66;100512.09;5061071;28;20037;-86
2022/09/02 09:40:20;;;;;;;5.28;2.40;;;;;;;26.80;68.57;100501.34;5060249;28;20036;-83
2022/09/02 09:42:47;;;;;;;6.85;3.10;;;;;;;26.99;68.30;100507.91;5061905;28;20056;-83
2022/09/02 09:45:20;;;;;;;4.68;2.63;;;;;;;27.58;65.41;100510.09;5059208;28;20095;-87
2022/09/02 09:48:12;;;;;;;10.45;2.80;;;;;;;27.83;64.31;100501.91;5074830;28;20025;-85
2022/09/02 09:50:38;;;;;;;4.57;2.20;;;;;;;28.26;63.00;100503.16;5077256;28;20041;-83
2022/09/02 09:53:23;;;;;;;5.00;2.70;;;;;;;28.37;61.77;100493.03;5069858;28;20047;-84
2022/09/02 09:56:04;;;;;;;4.22;2.65;;;;;;;28.29;61.09;100490.88;5059991;28;20037;-83
2022/09/02 09:58:40;;;;;;;8.13;2.95;;;;;;;28.38;62.67;100489.19;5057738;28;20043;-84
2022/09/02 10:01:19;;;;;;;4.13;2.40;;;;;;;28.96;59.33;100473.84;5055020;28;20040;-82
2022/09/02 10:03:54;;;;;;;6.80;2.33;;;;;;;28.97;58.55;100484.47;5072985;28;20047;-86
2022/09/02 10:06:33;;;;;;;6.00;3.30;;;;;;;28.20;60.58;100477.84;5065646;28;20084;-84
2022/09/02 10:09:02;;;;;;;5.90;3.17;;;;;;;28.43;60.32;100487.25;5060343;28;20033;-85
2022/09/02 10:11:30;;;;;;;7.72;3.10;;;;;;;27.42;63.57;100481.25;5054594;28;20035;-85
2022/09/02 10:14:08;;;;;;;9.60;2.70;;;;;;;27.22;65.64;100461.13;5037777;28;20090;-86
2022/09/02 10:16:33;;;;;;;6.25;2.30;;;;;;;28.04;64.28;100468.03;5055439;28;20033;-82
2022/09/02 10:19:36;;;;;;;7.07;3.10;;;;;;;28.33;60.38;100470.13;5056003;28;20478;-85
2022/09/02 10:22:27;;;;;;;5.78;2.42;;;;;;;28.92;58.65;100468.16;5052894;28;20503;-85
2022/09/02 10:25:12;;;;;;;6.88;2.90;;;;;;;29.19;58.02;100473.94;5084192;28;20048;-84
2022/09/02 10:27:43;;;;;;;8.98;2.92;;;;;;;28.86;59.24;100477.47;5055694;28;20029;-85
2022/09/02 10:30:28;;;;;;;9.30;2.72;;;;;;;28.80;58.72;100478.63;5054051;28;20099;-82
2022/09/02 10:33:11;;;;;;;4.45;2.20;;;;;;;28.68;59.73;100472.69;5047210;28;20455;-85
2022/09/02 10:35:43;;;;;;;5.18;2.05;;;;;;;28.26;59.95;100480.53;5056739;28;20471;-85
2022/09/02 10:38:08;;;;;;;;;;;;;;;28.76;58.75;100474.81;5054042;28;20128;-85
2022/09/02 10:40:59;;;;;;;7.93;2.63;;;;;;;28.50;59.44;100471.41;5053176;28;20366;-86
2022/09/02 10:44:05;;;;;;;8.10;2.88;;;;;;;29.07;56.71;100470.75;5052675;28;20040;-85
2022/09/02 10:46:46;;;;;;;9.15;2.95;;;;;;;28.96;56.59;100469.22;5054057;28;20029;-85
2022/09/02 10:49:32;;;;;;;6.67;2.77;;;;;;;28.83;57.95;100460.88;5054979;28;20032;-85
2022/09/02 10:52:22;;;;;;;6.00;2.35;;;;;;;28.54;58.85;100463.47;5051291;28;20041;-88
2022/09/02 10:55:08;;;;;;;4.32;2.10;;;;;;;28.85;57.89;100464.94;5067167;28;20037;-90
2022/09/02 10:57:46;;;;;;;7.30;2.17;;;;;;;28.88;57.85;100450.72;5034507;28;20044;-88
2022/09/02 11:00:22;;;;;;;3.42;2.72;;;;;;;29.20;56.29;100450.97;5021894;28;20033;-87
2022/09/02 11:03:11;;;;;;;7.32;2.88;;;;;;;28.93;56.85;100447.16;5053886;28;20446;-87
2022/09/02 11:05:55;;;;;;;3.95;2.90;;;;;;;29.41;55.98;100448.09;5068361;28;20549;-88
2022/09/02 11:08:40;;;;;;;5.50;2.45;;;;;;;29.56;54.95;100445.22;5065839;28;20457;-88
2022/09/02 11:11:31;;;;;;;3.88;2.20;;;;;;;28.75;56.49;100448.63;5053395;28;20025;-86
2022/09/02 11:14:00;;;;;;;3.63;2.10;;;;;;;28.00;59.63;100450.63;5047643;28;20522;-86
2022/09/02 11:16:35;;;;;;;4.45;2.60;;;;;;;27.99;60.31;100445.44;5047167;28;20029;-87
2022/09/02 11:19:13;;;;;;;4.07;2.22;;;;;;;27.85;61.01;100441.69;5050900;28;20032;-86
2022/09/02 11:21:51;;;;;;;6.22;2.15;;;;;;;27.79;61.76;100432.72;5063816;28;20033;-85
2022/09/02 11:24:32;;;;;;;6.35;2.60;;;;;;;28.01;60.75;100430.44;5046969;28;20033;-86
2022/09/02 11:27:19;;;;;;;6.50;2.10;;;;;;;28.92;57.22;100424.50;5033797;28;20029;-87
2022/09/02 11:30:01;;;;;;;5.38;2.17;;;;;;;30.01;52.88;100431.06;5050666;28;20115;-90
2022/09/02 11:32:51;;;;;;;2.72;1.70;;;;;;;30.72;51.79;100425.41;5049809;28;20107;-88
2022/09/02 11:35:26;;;;;;;7.13;1.88;;;;;;;30.77;49.81;100427.25;5049251;28;20033;-85
2022/09/02 11:38:02;;;;;;;4.15;2.40;;;;;;;30.40;51.35;100421.78;5048634;28;20145;-85
2022/09/02 11:41:09;;;;;;;8.70;2.20;;;;;;;29.63;53.14;100423.84;5067725;28;20044;-86
2022/09/02 11:43:48;;;;;;;5.55;1.95;;;;;;;29.01;55.22;100420.03;5053598;28;20082;-84
2022/09/02 11:46:25;;;;;;;4.93;1.92;;;;;;;28.48;57.08;100418.22;5059146;28;20029;-85
2022/09/02 11:49:12;;;;;;;6.95;1.90;;;;;;;28.37;57.33;100411.25;5056628;28;20487;-86
2022/09/02 11:51:50;;;;;;;5.55;2.17;;;;;;;28.30;58.22;100406.09;5054960;28;20479;-85
2022/09/02 11:54:18;;;;;;;7.18;1.75;;;;;;;28.17;58.48;100409.44;5053944;28;20025;-86
2022/09/02 11:56:47;;;;;;;5.50;2.30;;;;;;;28.07;59.41;100412.22;5061382;28;20102;-87
2022/09/02 11:59:22;;;;;;;5.78;2.10;;;;;;;27.86;61.12;100395.09;5063949;28;20022;-85
2022/09/02 12:01:53;;;;;;;4.68;2.10;;;;;;;27.65;61.24;100397.09;5058821;28;20041;-82
2022/09/02 12:04:25;;;;;;;5.38;2.47;;;;;;;27.46;61.87;100397.97;5068012;28;20032;-84
2022/09/02 12:07:06;;;;;;;10.00;2.40;;;;;;;27.63;62.06;100398.47;5074224;28;20021;-86
2022/09/02 12:09:54;;;;;;;6.20;2.63;;;;;;;27.58;62.34;100390.28;5076366;28;20017;-86
2022/09/02 12:12:35;;;;;;;9.40;2.45;;;;;;;27.36;63.88;100390.63;5074692;28;20027;-86
2022/09/02 12:15:13;;;;;;;5.45;2.53;;;;;;;27.08;64.63;100383.84;5076125;28;20081;-86